AirNav   Air Wisconsin Up To $57,000 Bonus
 
 617 users online  

AK38 Providence Hospital Heliport
Anchorage, Alaska, USA

GOING TO ANCHORAGE?


FAA INFORMATION EFFECTIVE 02 JANUARY 2020

Location

FAA Identifier: AK38
Lat/Long: 61-11-20.5100N 149-49-18.5900W
61-11.341833N 149-49.309833W
61.1890306,-149.8218306
(estimated)
Elevation: 140 ft. / 43 m (estimated)
Variation: 25E (1985)
From city: 3 miles SE of ANCHORAGE, AK
Time zone: UTC -9 (UTC -8 during Daylight Saving Time)
Zip code: 99508

Heliport Operations

Heliport use: Private use. Permission required prior to landing
Activation date: 11/1986
Control tower: no
ARTCC: ANCHORAGE CENTER
FSS: KENAI FLIGHT SERVICE STATION [907-283-7211]
Attendance: CONTINUOUS
Wind indicator: yes
Segmented circle: no
Lights: 24 HRS

Heliport Communications

CTAF: 126.0
WX ASOS at MRI (1.6 nm NW): 124.25 (907-271-5277)
WX ASOS at LHD (4 nm W): PHONE 907-245-5432
WX ASOS at ANC (5 nm W): PHONE 907-271-5278
WX ASOS at FRN (7 nm NE): 134.25
WX AWOS-3P at BCV (16 nm NE): 135.55 (907-688-0826)

Nearby radio navigation aids

VOR radial/distance  VOR name  Freq  Var
TEDr054/4.2ANCHORAGE VOR/DME113.1518E
BGQr151/23.2BIG LAKE VORTAC112.5019E

 
NDB name  Hdg/Dist  Freq  Var  ID
CAMPBELL LAKE065/6.633816ECMQ -.-. -- --.-

Heliport Services

Runway Information

Helipad H1

Dimensions: 60 x 60 ft. / 18 x 18 m
Surface: asphalt, in good condition
Runway edge lights: medium intensity
Runway edge markings: FLOOD LIGHTS.
Latitude: 61-11.341833N
Longitude: 149-49.309833W
Elevation: 140.0 ft.
Traffic pattern: leftleft

Heliport Ownership and Management from official FAA records

Ownership: Privately-owned
Owner: PROVIDENCE HEALTH SYSTEM
3200 PROVIDENCE DR
ANCHORAGE, AK 99508
Phone 907-562-2211
Manager: VICKI FACIANE
3200 PROVIDENCE DR
ANCHORAGE, AK 99508
Phone 907-212-5840
DIRECTOR OF FACILITIES.

Heliport Operational Statistics

Aircraft based on the field: 1
Helicopters: 1
    

Additional Remarks

APCH OR DEP NW OR SE ALONG PROVIDENCE DRIVE.
PPR FOR LNDG HELICOPTERS, CONTACT LIFEGUARD BASE TELEPHONE 907-261-3071 OR 800-478-5433 15 MINUTES PRIOR TO ARRIVAL.
ATTENDED 24 HRS. SPECIAL AIR TRAFFIC RULES-PART 93 SEE REGULATORY NOTICES.
WX AVBL ON MERRILL ATIS 124.25 OR CTC FSS.
BE ALERT; HOSPITAL HELICOPTER BASED ON ROOFTOP.
ANCHORAGE WX CAMERA AVBL ON INTERNET AT HTTP://AVCAMS.FAA.GOV.
HELIPORT WITHIN MERRILL CLASS D ASP, CTC MERRILL TWR FREQ 126.0.

Instrument Procedures

There are no published instrument procedures at AK38.

Some nearby airports with instrument procedures:

PAMR - Merrill Field Airport (2 nm NW)
PAED - Elmendorf Air Force Base (4 nm N)
PANC - Ted Stevens Anchorage International Airport (5 nm W)
PAFR - Bryant Army Airfield Heliport (7 nm NE)
PAGQ - Big Lake Airport (21 nm N)
 
Loc | Ops | Rwys | IFR | FBO | Links
Com | Nav | Svcs | Stats | Notes

Crowley
 
Area around AK38 (Providence Hospital Heliport)
 
Road maps at: MapQuest Bing Google
 
Aerial photo
No photo
 
Sectional chart

 
Airport distance calculator
Flying to Providence Hospital Heliport? Find the distance to fly.

From to AK38

Sunrise and sunset
Times for 21-Jan-2020
 Local
(UTC-9)
 Zulu
(UTC)
Morning civil twilight08:5217:52
Sunrise09:4618:46
Sunset16:3601:36
Evening civil twilight17:2902:29

Current date and time
Zulu (UTC)  21-Jan-2020 11:49:37
Local (UTC-9)  21-Jan-2020 02:49:37
 
METAR
PAMR 
2nm NW 
211053Z 07003KT 10SM FEW029 SCT050 OVC160 M15/M17 A2949 RMK AO2 SLP988 T11501172 $
PAED 
4nm N 
211056Z AUTO 05006KT 10SM CLR M09/M12 A2948 RMK AO2 SLP982 T10951117 $
PALH 
4nm W 
211053Z 00000KT 1 1/2SM CLR M10/M13 A2951 RMK AO2 SFC VIS 10 SLP992 T11001128
PANC 
6nm W 
211053Z 35006KT 10SM FEW060 SCT160 M08/M11 A2949 RMK AO2 SLP990 4/011 I1000 T10781111
PAFR 
7nm NE 
211134Z AUTO 03003KT 2 3/4SM PL BR FEW007 SCT011 SCT026 BKN031 OVC039 M12/M13 A2945 RMK AO2 VIS 2 3/4V10 SLP985 FZRANO $
PABV 
16nm NE 
211056Z AUTO 00000KT 10SM SCT055 SCT080 BKN100 M13/M14 A2951 RMK AO2 SLP999 T11281144 FZRANO
TAF
PAED 
4nm N 
210300Z 2103/2209 VRB06KT 4800 -SN BR BKN020 620123 QNH2935INS TEMPO 2103/2108 3200 -SN BR BKN012 620083 BECMG 2110/2111 VRB06KT 9999 NSW BKN015 610153 QNH2938INS BECMG 2203/2204 VRB06KT 4800 -SN BKN012 620123 QNH2940INS TXM06/2201Z TNM19/2114Z
PANC 
6nm W 
210341Z 2104/2206 VRB04KT 6SM -SN SCT020 OVC035 TEMPO 2104/2108 3SM -SN BR OVC020 FM211000 VRB04KT P6SM VCSH SCT010 OVC045
NOTAMs
Click for the latest NOTAMs
NOTAMs are issued by the DoD/FAA and will open in a separate window not controlled by AirNav.

 

 
 

Would you like to see your business listed on this page?

 If your business provides an interesting product or service to pilots, flight crews, aircraft, or users of the Providence Hospital Heliport, you should consider listing it here.  To start the listing process, click on the button below
 
Add a business
 

Other Pages about Providence Hospital Heliport

Update a link
 
Copyright © AirNav, LLC. All rights reserved. Privacy Policy  Contact